createdAt,value
2018-04-10T00:01:02.245Z,37.03
2018-04-10T00:03:32.132Z,40.53
2018-04-10T00:06:00.705Z,41.10
2018-04-10T00:08:29.510Z,37.50
2018-04-10T00:10:57.934Z,42.80
2018-04-10T00:13:26.333Z,38.47
2018-04-10T00:15:55.464Z,37.73
2018-04-10T00:18:23.859Z,41.47
2018-04-10T00:20:52.388Z,38.07
2018-04-10T00:23:21.557Z,34.87
2018-04-10T00:25:50.021Z,38.23
2018-04-10T00:28:19.257Z,33.87
2018-04-10T00:30:48.407Z,36.13
2018-04-10T00:33:16.803Z,36.60
2018-04-10T00:35:45.184Z,37.10
2018-04-10T00:38:13.583Z,32.97
2018-04-10T00:40:41.965Z,38.30
2018-04-10T00:43:10.349Z,37.00
2018-04-10T00:45:38.915Z,32.77
2018-04-10T00:48:07.292Z,37.10
2018-04-10T00:50:35.682Z,37.97
2018-04-10T00:53:21.989Z,39.70
2018-04-10T00:55:50.406Z,36.60
2018-04-10T00:58:19.252Z,33.57
2018-04-10T01:00:47.629Z,37.83
2018-04-10T01:03:16.043Z,34.13
2018-04-10T01:05:44.442Z,39.20
2018-04-10T01:08:13.645Z,35.27
2018-04-10T01:10:42.023Z,40.37
2018-04-10T01:13:11.963Z,35.53
2018-04-10T01:15:41.113Z,36.10
2018-04-10T01:18:09.554Z,38.17
2018-04-10T01:20:38.698Z,37.53
2018-04-10T01:23:07.256Z,37.83
2018-04-10T01:25:35.628Z,37.97
2018-04-10T01:28:04.792Z,38.20
2018-04-10T01:30:33.169Z,33.60
2018-04-10T01:33:01.576Z,36.23
2018-04-10T01:35:30.006Z,37.70
2018-04-10T01:37:58.412Z,37.20
2018-04-10T01:40:26.814Z,39.13
2018-04-10T01:42:55.971Z,32.63
2018-04-10T01:45:24.430Z,37.63
2018-04-10T01:47:53.593Z,35.97
2018-04-10T01:50:21.990Z,42.87
2018-04-10T01:52:50.384Z,38.30
2018-04-10T01:55:19.540Z,37.13
2018-04-10T01:57:47.941Z,39.77
2018-04-10T02:00:16.312Z,36.83
2018-04-10T02:02:44.724Z,36.90
2018-04-10T02:05:13.104Z,38.47
2018-04-10T02:07:41.512Z,40.10
2018-04-10T02:10:10.669Z,38.67
2018-04-10T02:12:39.041Z,40.87
2018-04-10T02:15:07.432Z,35.33
2018-04-10T02:17:35.822Z,33.93
2018-04-10T02:20:04.219Z,45.67
2018-04-10T02:22:32.593Z,35.80
2018-04-10T02:25:00.965Z,37.93
2018-04-10T02:27:29.354Z,38.33
2018-04-10T02:29:57.725Z,38.60
2018-04-10T02:32:26.117Z,31.53
2018-04-10T02:34:54.520Z,35.40
2018-04-10T02:37:22.898Z,36.43
2018-04-10T02:39:51.304Z,37.77
2018-04-10T02:42:20.488Z,32.53
2018-04-10T02:44:50.377Z,40.97
2018-04-10T02:47:18.761Z,38.80
2018-04-10T02:49:47.154Z,34.13
2018-04-10T02:52:15.548Z,35.10
2018-04-10T02:54:43.920Z,36.77
2018-04-10T02:57:12.424Z,39.63
2018-04-10T02:59:40.821Z,36.97
2018-04-10T03:02:09.216Z,41.50
2018-04-10T03:04:38.400Z,39.93
2018-04-10T03:07:06.789Z,36.20
2018-04-10T03:09:35.209Z,34.33
2018-04-10T03:12:03.605Z,33.30
2018-04-10T03:14:32.014Z,31.40
2018-04-10T03:17:00.389Z,34.43
2018-04-10T03:19:28.948Z,31.87
2018-04-10T03:21:57.381Z,34.97
2018-04-10T03:24:25.809Z,32.03
2018-04-10T03:26:54.190Z,31.93
2018-04-10T03:29:22.584Z,32.90
2018-04-10T03:31:50.982Z,33.63
2018-04-10T03:34:19.393Z,37.03
2018-04-10T03:36:47.764Z,30.40
2018-04-10T03:39:16.158Z,31.57
2018-04-10T03:41:44.633Z,35.77
2018-04-10T03:44:13.112Z,32.13
2018-04-10T03:46:41.520Z,32.20
2018-04-10T03:49:09.907Z,31.70
2018-04-10T03:51:38.305Z,32.50
2018-04-10T03:54:07.469Z,35.33
2018-04-10T03:56:35.888Z,33.80
2018-04-10T03:59:04.249Z,32.27
2018-04-10T04:01:32.669Z,38.17
2018-04-10T04:04:01.080Z,31.87
2018-04-10T04:06:29.464Z,31.43
2018-04-10T04:08:57.857Z,31.73
2018-04-10T04:11:26.237Z,32.30
2018-04-10T04:13:54.613Z,35.63
2018-04-10T04:16:40.708Z,34.27
2018-04-10T04:19:27.113Z,29.13
2018-04-10T04:22:20.199Z,35.07
2018-04-10T04:24:49.357Z,30.03
2018-04-10T04:27:17.769Z,27.23
2018-04-10T04:29:46.179Z,30.73
2018-04-10T04:32:15.504Z,29.87
2018-04-10T04:34:43.881Z,30.13
2018-04-10T04:37:12.299Z,27.77
2018-04-10T04:39:40.709Z,35.70
2018-04-10T04:42:09.089Z,35.20
2018-04-10T04:44:37.477Z,28.67
2018-04-10T04:47:05.906Z,31.53
2018-04-10T04:49:34.394Z,34.60
2018-04-10T04:52:02.805Z,29.80
2018-04-10T04:54:31.321Z,27.90
2018-04-10T04:57:00.485Z,31.57
2018-04-10T04:59:28.873Z,31.70
2018-04-10T05:01:57.269Z,31.70
2018-04-10T05:04:25.689Z,31.83
2018-04-10T05:06:54.835Z,33.87
2018-04-10T05:09:23.257Z,32.77
2018-04-10T05:11:52.432Z,30.87
2018-04-10T05:14:20.855Z,30.47
2018-04-10T05:16:50.036Z,31.07
2018-04-10T05:19:19.223Z,29.43
2018-04-10T05:21:47.624Z,28.37
2018-04-10T05:24:16.774Z,33.60
2018-04-10T05:26:45.265Z,33.50
2018-04-10T05:29:13.654Z,32.87
2018-04-10T05:31:42.046Z,35.23
2018-04-10T05:34:10.472Z,31.17
2018-04-10T05:36:39.625Z,27.40
2018-04-10T05:39:08.040Z,29.90
2018-04-10T05:41:36.429Z,30.77
2018-04-10T05:44:05.602Z,31.13
2018-04-10T05:46:34.012Z,25.63
2018-04-10T05:49:03.195Z,29.50
2018-04-10T05:51:31.613Z,32.90
2018-04-10T05:54:00.770Z,32.97
2018-04-10T05:56:29.159Z,30.10
2018-04-10T05:58:57.606Z,29.63
2018-04-10T06:01:26.045Z,29.53
2018-04-10T06:03:54.427Z,31.77
2018-04-10T06:06:22.809Z,27.50
2018-04-10T06:08:51.193Z,26.47
2018-04-10T06:11:19.577Z,28.37
2018-04-10T06:13:48.728Z,31.13
2018-04-10T06:16:17.124Z,27.27
2018-04-10T06:18:45.511Z,32.43
2018-04-10T06:21:13.891Z,25.40
2018-04-10T06:23:42.281Z,25.63
2018-04-10T06:26:10.717Z,28.97
2018-04-10T06:28:39.894Z,27.73
2018-04-10T06:31:08.448Z,23.97
2018-04-10T06:33:36.957Z,27.93
2018-04-10T06:36:05.381Z,26.73
2018-04-10T06:38:35.481Z,26.97
2018-04-10T06:41:04.622Z,25.50
2018-04-10T06:43:33.018Z,23.90
2018-04-10T06:46:01.505Z,23.37
2018-04-10T06:48:29.905Z,24.07
2018-04-10T06:50:58.327Z,24.60
2018-04-10T06:53:27.540Z,22.00
2018-04-10T06:55:55.904Z,26.27
2018-04-10T06:58:25.054Z,22.77
2018-04-10T07:00:53.449Z,20.90
2018-04-10T07:03:21.911Z,26.10
2018-04-10T07:05:50.299Z,25.00
2018-04-10T07:08:18.777Z,21.17
2018-04-10T07:10:47.173Z,26.70
2018-04-10T07:13:15.589Z,22.03
2018-04-10T07:15:44.108Z,32.43
2018-04-10T07:18:13.291Z,23.13
2018-04-10T07:20:42.527Z,25.37
2018-04-10T07:23:10.901Z,23.80
2018-04-10T07:25:39.369Z,27.10
2018-04-10T07:28:08.515Z,20.13
2018-04-10T07:30:36.921Z,23.10
2018-04-10T07:33:05.319Z,27.77
2018-04-10T07:35:33.724Z,25.30
2018-04-10T07:38:02.882Z,19.93
2018-04-10T07:40:31.293Z,21.43
2018-04-10T07:42:59.674Z,18.13
2018-04-10T07:45:28.068Z,15.93
2018-04-10T07:47:57.398Z,15.47
2018-04-10T07:50:25.794Z,20.73
2018-04-10T07:52:54.183Z,19.10
2018-04-10T07:55:22.609Z,17.27
2018-04-10T07:57:51.057Z,15.93
2018-04-10T08:00:19.642Z,16.20
2018-04-10T08:02:48.026Z,14.43
2018-04-10T08:05:16.458Z,14.77
2018-04-10T08:07:45.633Z,18.57
2018-04-10T08:10:14.008Z,13.60
2018-04-10T08:12:43.197Z,15.57
2018-04-10T08:15:11.586Z,16.53
2018-04-10T08:17:40.004Z,16.50
2018-04-10T08:20:09.885Z,12.00
2018-04-10T08:22:38.298Z,16.23
2018-04-10T08:25:06.701Z,13.53
2018-04-10T08:27:35.866Z,12.83
2018-04-10T08:30:04.317Z,13.63
2018-04-10T08:32:32.773Z,19.33
2018-04-10T08:35:01.920Z,12.07
2018-04-10T08:37:30.298Z,12.20
2018-04-10T08:39:58.694Z,14.27
2018-04-10T08:42:27.073Z,10.10
2018-04-10T08:44:55.465Z,14.97
2018-04-10T08:47:23.938Z,10.47
2018-04-10T08:49:52.303Z,15.00
2018-04-10T08:52:20.802Z,10.60
2018-04-10T08:54:49.173Z,11.13
2018-04-10T08:57:17.666Z,12.10
2018-04-10T08:59:46.042Z,9.87
2018-04-10T09:02:14.466Z,13.03
2018-04-10T09:04:42.844Z,9.90
2018-04-10T09:07:11.293Z,11.30
2018-04-10T09:09:39.721Z,7.20
2018-04-10T09:12:08.109Z,5.47
2018-04-10T09:14:36.533Z,5.50
2018-04-10T09:17:04.911Z,8.80
2018-04-10T09:19:33.284Z,5.77
2018-04-10T09:22:02.434Z,7.33
2018-04-10T09:24:30.818Z,7.73
2018-04-10T09:26:59.214Z,17.83
2018-04-10T09:29:27.589Z,7.70
2018-04-10T09:31:56.009Z,6.67
2018-04-10T09:34:24.391Z,6.60
2018-04-10T09:36:53.523Z,9.43
2018-04-10T09:39:21.938Z,4.77
2018-04-10T09:41:50.354Z,8.27
2018-04-10T09:44:19.525Z,6.37
2018-04-10T09:46:47.934Z,7.57
2018-04-10T09:49:16.325Z,4.87
2018-04-10T09:51:45.482Z,8.13
2018-04-10T09:54:13.886Z,5.57
2018-04-10T09:56:42.250Z,3.33
2018-04-10T09:59:10.649Z,7.30
2018-04-10T10:01:39.046Z,3.60
2018-04-10T10:04:07.412Z,6.90
2018-04-10T10:06:35.811Z,4.20
2018-04-10T10:09:04.194Z,5.50
2018-04-10T10:11:33.372Z,3.97
2018-04-10T10:14:01.743Z,3.57
2018-04-10T10:16:30.129Z,4.60
2018-04-10T10:18:58.509Z,7.37
2018-04-10T10:21:26.890Z,3.43
2018-04-10T10:23:55.315Z,4.20
2018-04-10T10:26:23.714Z,4.90
2018-04-10T10:28:52.869Z,4.93
2018-04-10T10:31:21.236Z,3.83
2018-04-10T10:33:49.609Z,3.37
2018-04-10T10:36:17.942Z,4.40
2018-04-10T10:38:46.344Z,5.23
2018-04-10T10:41:15.503Z,3.67
2018-04-10T10:43:43.899Z,3.30
2018-04-10T10:46:12.285Z,5.63
2018-04-10T10:48:41.424Z,4.43
2018-04-10T10:51:09.930Z,3.93
2018-04-10T10:53:38.301Z,5.67
2018-04-10T10:56:06.710Z,3.93
2018-04-10T10:58:35.068Z,3.60
2018-04-10T11:01:03.471Z,3.50
2018-04-10T11:03:32.564Z,3.70
2018-04-10T11:06:00.958Z,5.43
2018-04-10T11:08:29.371Z,4.90
2018-04-10T11:10:57.754Z,6.87
2018-04-10T11:13:26.128Z,4.90
2018-04-10T11:15:54.502Z,4.10
2018-04-10T11:18:22.890Z,5.50
2018-04-10T11:20:51.285Z,3.90
2018-04-10T11:23:19.657Z,9.87
2018-04-10T11:25:48.090Z,5.47
2018-04-10T11:28:16.485Z,3.30
2018-04-10T11:30:44.897Z,4.23
2018-04-10T11:33:13.266Z,3.53
2018-04-10T11:35:41.694Z,4.40
2018-04-10T11:38:10.076Z,3.60
2018-04-10T11:40:38.502Z,4.80
2018-04-10T11:43:06.916Z,4.00
2018-04-10T11:45:35.289Z,4.33
2018-04-10T11:48:04.589Z,6.30
2018-04-10T11:50:32.992Z,4.17
2018-04-10T11:53:01.389Z,7.30
2018-04-10T11:55:29.793Z,5.17
2018-04-10T11:57:58.925Z,4.13
2018-04-10T12:00:27.297Z,3.67
2018-04-10T12:02:55.683Z,5.10
2018-04-10T12:05:24.048Z,5.23
2018-04-10T12:07:53.218Z,3.70
2018-04-10T12:10:21.781Z,5.60
2018-04-10T12:12:50.346Z,4.93
2018-04-10T12:15:18.766Z,3.60
2018-04-10T12:17:47.155Z,4.37
2018-04-10T12:20:15.705Z,5.30
2018-04-10T12:22:44.106Z,4.80
2018-04-10T12:25:12.491Z,3.50
2018-04-10T12:27:40.881Z,7.30
2018-04-10T12:30:09.272Z,6.50
2018-04-10T12:32:37.669Z,3.77
2018-04-10T12:35:06.081Z,4.93
2018-04-10T12:37:35.246Z,7.87
2018-04-10T12:40:03.631Z,4.93
2018-04-10T12:42:31.998Z,5.43
2018-04-10T12:45:00.383Z,5.43
2018-04-10T12:47:28.765Z,4.33
2018-04-10T12:49:57.161Z,6.33
2018-04-10T12:52:25.548Z,5.13
2018-04-10T12:54:53.952Z,5.10
2018-04-10T12:57:22.313Z,7.70
2018-04-10T12:59:50.682Z,4.53
2018-04-10T13:02:19.066Z,5.50
2018-04-10T13:04:47.460Z,3.90
2018-04-10T13:07:15.908Z,6.60
2018-04-10T13:09:44.388Z,4.60
2018-04-10T13:12:12.781Z,7.97
2018-04-10T13:14:41.181Z,6.33
2018-04-10T13:17:09.583Z,4.10
2018-04-10T13:19:37.956Z,4.10
2018-04-10T13:22:06.357Z,6.77
2018-04-10T13:24:34.780Z,4.40
2018-04-10T13:27:03.202Z,4.90
2018-04-10T13:29:31.625Z,5.20
2018-04-10T13:32:00.805Z,5.70
2018-04-10T13:34:29.235Z,4.00
2018-04-10T13:36:57.615Z,5.43
2018-04-10T13:39:26.003Z,2.90
2018-04-10T13:41:54.404Z,7.10
2018-04-10T13:44:22.837Z,4.57
2018-04-10T13:46:52.016Z,3.73
2018-04-10T13:49:20.443Z,4.07
2018-04-10T13:51:49.621Z,3.77
2018-04-10T13:54:18.087Z,3.60
2018-04-10T13:56:47.308Z,11.00
2018-04-10T13:59:16.558Z,3.90
2018-04-10T14:01:44.938Z,3.77
2018-04-10T14:04:13.369Z,5.53
2018-04-10T14:06:41.748Z,5.40
2018-04-10T14:09:10.130Z,5.50
2018-04-10T14:11:38.538Z,6.77
2018-04-10T14:14:07.757Z,3.00
2018-04-10T14:16:36.909Z,5.63
2018-04-10T14:19:05.367Z,4.70
2018-04-10T14:21:33.749Z,6.97
2018-04-10T14:24:02.155Z,3.87
2018-04-10T14:26:31.343Z,4.60
2018-04-10T14:28:59.751Z,5.13
2018-04-10T14:31:28.238Z,2.53
2018-04-10T14:33:58.138Z,4.77
2018-04-10T14:36:26.565Z,3.03
2018-04-10T14:38:55.705Z,3.20
2018-04-10T14:41:24.097Z,4.40
2018-04-10T14:43:52.482Z,2.50
2018-04-10T14:46:20.870Z,3.13
2018-04-10T14:48:49.237Z,7.57
2018-04-10T14:51:17.625Z,3.80
2018-04-10T14:53:46.026Z,7.60
2018-04-10T14:56:14.429Z,6.10
2018-04-10T14:58:42.812Z,4.40
2018-04-10T15:01:11.210Z,2.53
2018-04-10T15:03:39.637Z,4.33
2018-04-10T15:06:08.053Z,8.47
2018-04-10T15:08:37.218Z,8.00
2018-04-10T15:11:05.593Z,5.40
2018-04-10T15:13:33.997Z,4.90
2018-04-10T15:16:02.362Z,7.90
2018-04-10T15:18:30.757Z,3.40
2018-04-10T15:20:59.141Z,9.50
2018-04-10T15:23:27.506Z,4.33
2018-04-10T15:25:56.817Z,4.70
2018-04-10T15:28:25.203Z,4.70
2018-04-10T15:30:53.730Z,3.93
2018-04-10T15:33:22.126Z,6.33
2018-04-10T15:35:50.546Z,5.50
2018-04-10T15:38:18.965Z,4.30
2018-04-10T15:40:47.388Z,5.67
2018-04-10T15:43:15.809Z,8.03
2018-04-10T15:45:44.244Z,13.90
2018-04-10T15:48:12.631Z,4.27
2018-04-10T15:50:41.038Z,5.77
2018-04-10T15:53:10.183Z,7.60
2018-04-10T15:55:38.575Z,9.23
2018-04-10T15:58:06.965Z,9.80
2018-04-10T16:00:35.337Z,19.30
2018-04-10T16:03:03.804Z,6.03
2018-04-10T16:05:32.201Z,6.83
2018-04-10T16:08:00.608Z,5.70
2018-04-10T16:10:28.989Z,11.83
2018-04-10T16:12:57.396Z,6.87
2018-04-10T16:15:26.693Z,8.67
2018-04-10T16:17:55.858Z,4.00
2018-04-10T16:20:24.232Z,6.00
2018-04-10T16:22:52.670Z,7.60
2018-04-10T16:25:21.817Z,6.20
2018-04-10T16:27:50.197Z,8.90
2018-04-10T16:30:18.712Z,7.90
2018-04-10T16:32:47.175Z,12.93
2018-04-10T16:35:15.548Z,12.27
2018-04-10T16:37:44.477Z,10.63
2018-04-10T16:40:12.895Z,8.63
2018-04-10T16:42:41.262Z,18.63
2018-04-10T16:45:09.641Z,12.50
2018-04-10T16:47:38.072Z,10.50
2018-04-10T16:50:06.515Z,10.33
2018-04-10T16:52:35.884Z,11.67
2018-04-10T16:55:04.601Z,11.33
2018-04-10T16:57:33.064Z,11.50
2018-04-10T17:00:01.524Z,12.10
2018-04-10T17:02:29.945Z,10.57
2018-04-10T17:04:58.325Z,10.23
2018-04-10T17:07:26.722Z,8.70
2018-04-10T17:09:55.130Z,8.70
2018-04-10T17:12:24.302Z,13.90
2018-04-10T17:14:52.686Z,13.10
2018-04-10T17:17:21.094Z,17.60
2018-04-10T17:19:50.273Z,14.57
2018-04-10T17:22:18.673Z,13.57
2018-04-10T17:24:47.104Z,15.40
2018-04-10T17:27:15.528Z,16.53
2018-04-10T17:29:44.697Z,10.77
2018-04-10T17:32:13.083Z,11.77
2018-04-10T17:34:43.128Z,11.03
2018-04-10T17:37:11.553Z,15.20
2018-04-10T17:39:39.960Z,15.70
2018-04-10T17:42:09.320Z,14.73
2018-04-10T17:44:38.479Z,14.40
2018-04-10T17:47:06.909Z,17.10
2018-04-10T17:49:36.072Z,16.17
2018-04-10T17:52:04.477Z,10.33
2018-04-10T17:54:32.881Z,16.23
2018-04-10T17:57:02.972Z,15.27
2018-04-10T17:59:32.174Z,20.47
2018-04-10T18:02:00.609Z,22.40
2018-04-10T18:04:29.002Z,23.07
2018-04-10T18:06:57.449Z,24.03
2018-04-10T18:09:26.629Z,20.40
2018-04-10T18:11:55.042Z,13.37
2018-04-10T18:14:24.251Z,10.30
2018-04-10T18:16:52.645Z,14.07
2018-04-10T18:19:21.086Z,20.10
2018-04-10T18:21:49.477Z,12.77
2018-04-10T18:24:18.683Z,14.60
2018-04-10T18:26:47.853Z,8.53
2018-04-10T18:29:16.839Z,10.13
2018-04-10T18:31:45.310Z,11.60
2018-04-10T18:34:13.790Z,12.33
2018-04-10T18:36:42.340Z,11.87
2018-04-10T18:39:11.996Z,9.93
2018-04-10T18:41:41.410Z,13.53
2018-04-10T18:44:11.452Z,7.20
2018-04-10T18:46:40.517Z,12.00
2018-04-10T18:49:08.971Z,9.70
2018-04-10T18:51:38.195Z,8.23
2018-04-10T18:54:06.657Z,7.43
2018-04-10T18:56:37.137Z,8.73
2018-04-10T18:59:05.588Z,7.10
2018-04-10T19:01:36.855Z,6.30
2018-04-10T19:04:05.259Z,7.67
2018-04-10T19:06:34.664Z,9.57
2018-04-10T19:09:03.067Z,7.63
2018-04-10T19:11:31.608Z,8.47
2018-04-10T19:14:00.070Z,9.67
2018-04-10T19:16:29.573Z,8.43
2018-04-10T19:18:59.737Z,10.37
2018-04-10T19:21:28.130Z,7.40
2018-04-10T19:23:56.608Z,11.60
2018-04-10T19:26:25.022Z,11.63
2018-04-10T19:28:54.287Z,8.80
2018-04-10T19:31:25.530Z,10.57
2018-04-10T19:33:53.929Z,12.30
2018-04-10T19:36:22.367Z,15.37
2018-04-10T19:38:51.579Z,11.77
2018-04-10T19:41:20.015Z,13.50
2018-04-10T19:43:48.422Z,12.60
2018-04-10T19:46:18.003Z,12.40
2018-04-10T19:48:46.466Z,12.50
2018-04-10T19:51:14.863Z,12.10
2018-04-10T19:53:44.016Z,12.27
2018-04-10T19:56:13.271Z,15.00
2018-04-10T19:58:41.645Z,17.23
2018-04-10T20:01:10.068Z,14.10
2018-04-10T20:03:39.233Z,14.30
2018-04-10T20:06:07.675Z,17.40
2018-04-10T20:08:37.019Z,18.53
2018-04-10T20:11:05.701Z,16.60
2018-04-10T20:13:34.472Z,20.60
2018-04-10T20:16:02.877Z,17.37
2018-04-10T20:18:31.351Z,21.70
2018-04-10T20:20:59.770Z,19.27
2018-04-10T20:23:28.193Z,21.60
2018-04-10T20:25:57.362Z,22.83
2018-04-10T20:28:25.797Z,23.53
2018-04-10T20:30:54.254Z,25.83
2018-04-10T20:33:24.315Z,26.03
2018-04-10T20:35:52.743Z,30.20
2018-04-10T20:38:22.235Z,30.17
2018-04-10T20:40:50.643Z,33.47
2018-04-10T20:43:20.863Z,27.80
2018-04-10T20:45:50.056Z,29.67
2018-04-10T20:48:18.899Z,27.83
2018-04-10T20:50:47.357Z,28.83
2018-04-10T20:53:16.574Z,27.97
2018-04-10T20:55:46.111Z,31.97
2018-04-10T20:58:14.664Z,32.00
2018-04-10T21:00:43.049Z,27.00
2018-04-10T21:03:13.973Z,29.10
2018-04-10T21:05:43.162Z,31.10
2018-04-10T21:08:11.561Z,28.03
2018-04-10T21:10:40.776Z,29.53
2018-04-10T21:13:09.179Z,31.77
2018-04-10T21:15:37.581Z,30.80
2018-04-10T21:18:06.009Z,30.17
2018-04-10T21:20:35.202Z,34.73
2018-04-10T21:23:03.687Z,32.63
2018-04-10T21:25:32.194Z,32.47
2018-04-10T21:28:01.349Z,31.73
2018-04-10T21:30:30.501Z,31.57
2018-04-10T21:32:59.663Z,29.97
2018-04-10T21:35:28.065Z,29.90
2018-04-10T21:37:56.456Z,30.27
2018-04-10T21:40:25.618Z,35.00
2018-04-10T21:42:59.529Z,39.27
2018-04-10T21:45:28.695Z,36.03
2018-04-10T21:47:57.088Z,37.73
2018-04-10T21:50:25.477Z,34.77
2018-04-10T21:52:53.863Z,33.50
2018-04-10T21:55:22.255Z,35.27
2018-04-10T21:57:50.689Z,34.07
2018-04-10T22:00:19.855Z,29.50
2018-04-10T22:02:48.263Z,20.47
2018-04-10T22:05:17.427Z,15.80
2018-04-10T22:07:45.889Z,19.70
2018-04-10T22:10:14.277Z,14.80
2018-04-10T22:12:42.689Z,12.90
2018-04-10T22:15:11.092Z,9.73
2018-04-10T22:17:39.474Z,10.30
2018-04-10T22:20:07.913Z,7.63
2018-04-10T22:22:36.342Z,9.50
2018-04-10T22:25:04.755Z,8.80
2018-04-10T22:27:33.165Z,11.57
2018-04-10T22:30:01.566Z,9.03
2018-04-10T22:32:31.985Z,11.53
2018-04-10T22:35:00.366Z,9.80
2018-04-10T22:37:28.805Z,9.17
2018-04-10T22:39:57.206Z,7.37
2018-04-10T22:42:25.614Z,9.73
2018-04-10T22:44:54.099Z,6.17
2018-04-10T22:47:22.491Z,5.70
2018-04-10T22:49:50.891Z,9.97
2018-04-10T22:52:20.064Z,8.70
2018-04-10T22:54:48.464Z,7.00
2018-04-10T22:57:16.858Z,9.97
2018-04-10T22:59:46.041Z,7.77
2018-04-10T23:02:14.431Z,12.50
2018-04-10T23:04:42.858Z,7.13
2018-04-10T23:07:11.270Z,7.83
2018-04-10T23:09:39.757Z,9.70
2018-04-10T23:12:08.150Z,19.93
2018-04-10T23:14:36.565Z,8.07
2018-04-10T23:17:04.954Z,7.60
2018-04-10T23:19:33.375Z,6.97
2018-04-10T23:22:01.811Z,5.77
2018-04-10T23:24:30.180Z,6.10
2018-04-10T23:26:58.580Z,6.30
2018-04-10T23:29:26.967Z,5.97
2018-04-10T23:31:55.349Z,6.83
2018-04-10T23:34:23.731Z,5.65
2018-04-10T23:36:52.129Z,4.50
2018-04-10T23:39:20.527Z,5.67
2018-04-10T23:41:48.927Z,8.27
2018-04-10T23:44:18.069Z,4.37
2018-04-10T23:46:46.456Z,4.57
2018-04-10T23:49:14.874Z,6.60
2018-04-10T23:51:43.266Z,4.43
2018-04-10T23:54:12.425Z,5.60
2018-04-10T23:56:41.586Z,5.07
2018-04-10T23:59:09.992Z,5.10
